sensor_id;sensor_type;location;lat;lon;timestamp;pressure;altitude;pressure_sealevel;temperature;humidity
38616;BME280;24370;51.986;4.666;2023-03-13T00:01:55;100177.13;;;15.16;81.04
38616;BME280;24370;51.986;4.666;2023-03-13T00:04:20;100173.25;;;15.47;80.81
38616;BME280;24370;51.986;4.666;2023-03-13T00:06:46;100165.59;;;14.96;86.20
38616;BME280;24370;51.986;4.666;2023-03-13T00:09:13;100150.47;;;15.01;88.61
38616;BME280;24370;51.986;4.666;2023-03-13T00:11:39;100146.00;;;15.25;87.04
38616;BME280;24370;51.986;4.666;2023-03-13T00:14:05;100137.56;;;15.39;85.62
38616;BME280;24370;51.986;4.666;2023-03-13T00:16:31;100135.22;;;15.54;85.66
38616;BME280;24370;51.986;4.666;2023-03-13T00:18:58;100121.22;;;15.31;90.30
38616;BME280;24370;51.986;4.666;2023-03-13T00:21:26;100114.09;;;16.55;81.75
38616;BME280;24370;51.986;4.666;2023-03-13T00:23:52;100114.19;;;15.95;81.28
38616;BME280;24370;51.986;4.666;2023-03-13T00:26:20;100097.94;;;16.04;79.36
38616;BME280;24370;51.986;4.666;2023-03-13T00:28:46;100083.81;;;15.23;85.26
38616;BME280;24370;51.986;4.666;2023-03-13T00:31:14;100080.13;;;15.27;87.00
38616;BME280;24370;51.986;4.666;2023-03-13T00:33:45;100076.75;;;15.66;85.21
38616;BME280;24370;51.986;4.666;2023-03-13T00:36:17;100067.78;;;16.11;81.10
38616;BME280;24370;51.986;4.666;2023-03-13T00:38:43;100063.91;;;15.58;84.44
38616;BME280;24370;51.986;4.666;2023-03-13T00:41:25;100055.53;;;15.28;87.85
38616;BME280;24370;51.986;4.666;2023-03-13T00:43:51;100058.50;;;16.22;84.31
38616;BME280;24370;51.986;4.666;2023-03-13T00:46:19;100046.31;;;15.38;86.63
38616;BME280;24370;51.986;4.666;2023-03-13T00:48:45;100027.69;;;15.84;84.18
38616;BME280;24370;51.986;4.666;2023-03-13T00:51:12;100031.38;;;15.39;86.34
38616;BME280;24370;51.986;4.666;2023-03-13T00:53:37;100031.31;;;15.40;87.89
38616;BME280;24370;51.986;4.666;2023-03-13T00:56:05;100020.53;;;15.04;92.60
38616;BME280;24370;51.986;4.666;2023-03-13T00:58:34;100020.56;;;15.86;88.74
38616;BME280;24370;51.986;4.666;2023-03-13T01:03:33;100007.41;;;15.24;94.80
38616;BME280;24370;51.986;4.666;2023-03-13T01:06:00;100003.91;;;15.44;96.91
38616;BME280;24370;51.986;4.666;2023-03-13T01:08:27;100001.91;;;15.91;90.85
38616;BME280;24370;51.986;4.666;2023-03-13T01:11:07;99988.75;;;15.70;95.17
38616;BME280;24370;51.986;4.666;2023-03-13T01:13:33;99979.28;;;15.87;90.26
38616;BME280;24370;51.986;4.666;2023-03-13T01:16:04;99974.78;;;15.68;92.17
38616;BME280;24370;51.986;4.666;2023-03-13T01:18:30;99970.66;;;15.63;97.39
38616;BME280;24370;51.986;4.666;2023-03-13T01:20:56;99975.97;;;15.82;93.92
38616;BME280;24370;51.986;4.666;2023-03-13T01:23:21;99964.72;;;15.97;90.04
38616;BME280;24370;51.986;4.666;2023-03-13T01:25:46;99951.97;;;15.88;92.42
38616;BME280;24370;51.986;4.666;2023-03-13T01:28:12;99951.00;;;15.30;99.53
38616;BME280;24370;51.986;4.666;2023-03-13T01:30:37;99960.09;;;15.02;100.00
38616;BME280;24370;51.986;4.666;2023-03-13T01:33:03;99941.41;;;15.29;100.00
38616;BME280;24370;51.986;4.666;2023-03-13T01:35:28;99938.31;;;16.54;89.28
38616;BME280;24370;51.986;4.666;2023-03-13T01:37:53;99943.31;;;16.05;95.96
38616;BME280;24370;51.986;4.666;2023-03-13T01:40:19;99936.63;;;15.58;100.00
38616;BME280;24370;51.986;4.666;2023-03-13T01:42:52;99921.56;;;15.81;99.50
38616;BME280;24370;51.986;4.666;2023-03-13T01:48:17;99909.50;;;16.50;89.72
38616;BME280;24370;51.986;4.666;2023-03-13T01:50:43;99896.06;;;16.37;94.11
38616;BME280;24370;51.986;4.666;2023-03-13T01:53:09;99896.69;;;16.05;93.18
38616;BME280;24370;51.986;4.666;2023-03-13T01:55:34;99891.25;;;15.91;96.04
38616;BME280;24370;51.986;4.666;2023-03-13T01:58:00;99875.81;;;16.20;98.66
38616;BME280;24370;51.986;4.666;2023-03-13T02:00:30;99869.94;;;16.32;97.70
38616;BME280;24370;51.986;4.666;2023-03-13T02:02:59;99866.38;;;16.51;90.94
38616;BME280;24370;51.986;4.666;2023-03-13T02:05:27;99857.91;;;16.96;89.40
38616;BME280;24370;51.986;4.666;2023-03-13T02:07:59;99843.56;;;16.32;92.44
38616;BME280;24370;51.986;4.666;2023-03-13T02:10:29;99853.63;;;16.41;93.74
38616;BME280;24370;51.986;4.666;2023-03-13T02:12:55;99842.47;;;16.54;92.45
38616;BME280;24370;51.986;4.666;2023-03-13T02:15:23;99837.97;;;16.38;94.57
38616;BME280;24370;51.986;4.666;2023-03-13T02:17:50;99838.28;;;17.02;94.06
38616;BME280;24370;51.986;4.666;2023-03-13T02:20:17;99841.25;;;16.61;94.71
38616;BME280;24370;51.986;4.666;2023-03-13T02:23:14;99840.31;;;16.62;95.04
38616;BME280;24370;51.986;4.666;2023-03-13T02:25:53;99831.69;;;16.76;94.77
38616;BME280;24370;51.986;4.666;2023-03-13T02:28:24;99841.25;;;16.96;92.24
38616;BME280;24370;51.986;4.666;2023-03-13T02:30:54;99838.13;;;16.35;97.23
38616;BME280;24370;51.986;4.666;2023-03-13T02:33:21;99827.59;;;16.35;97.09
38616;BME280;24370;51.986;4.666;2023-03-13T02:35:50;99824.47;;;16.62;94.86
38616;BME280;24370;51.986;4.666;2023-03-13T02:38:21;99830.53;;;16.82;88.61
38616;BME280;24370;51.986;4.666;2023-03-13T02:40:49;99828.34;;;16.37;99.94
38616;BME280;24370;51.986;4.666;2023-03-13T02:46:09;99824.91;;;16.88;92.86
38616;BME280;24370;51.986;4.666;2023-03-13T02:48:40;99831.63;;;17.44;88.04
38616;BME280;24370;51.986;4.666;2023-03-13T02:53:53;99827.53;;;16.54;97.06
38616;BME280;24370;51.986;4.666;2023-03-13T02:56:21;99826.28;;;17.62;89.53
38616;BME280;24370;51.986;4.666;2023-03-13T02:58:49;99825.75;;;16.90;92.85
38616;BME280;24370;51.986;4.666;2023-03-13T03:01:14;99817.94;;;16.87;90.89
38616;BME280;24370;51.986;4.666;2023-03-13T03:03:40;99817.22;;;17.01;90.13
38616;BME280;24370;51.986;4.666;2023-03-13T03:06:06;99804.91;;;17.01;90.31
38616;BME280;24370;51.986;4.666;2023-03-13T03:08:32;99793.03;;;17.58;88.43
38616;BME280;24370;51.986;4.666;2023-03-13T03:10:58;99783.13;;;17.29;86.39
38616;BME280;24370;51.986;4.666;2023-03-13T03:13:24;99781.53;;;17.27;89.22
38616;BME280;24370;51.986;4.666;2023-03-13T03:15:49;99798.28;;;17.10;94.63
38616;BME280;24370;51.986;4.666;2023-03-13T03:18:15;99778.72;;;17.46;90.96
38616;BME280;24370;51.986;4.666;2023-03-13T03:20:40;99775.28;;;17.28;91.85
38616;BME280;24370;51.986;4.666;2023-03-13T03:23:06;99771.38;;;17.19;92.16
38616;BME280;24370;51.986;4.666;2023-03-13T03:25:31;99777.59;;;17.02;92.23
38616;BME280;24370;51.986;4.666;2023-03-13T03:27:56;99790.47;;;16.91;88.81
38616;BME280;24370;51.986;4.666;2023-03-13T03:30:22;99784.84;;;17.46;90.11
38616;BME280;24370;51.986;4.666;2023-03-13T03:32:47;99775.56;;;17.39;92.23
38616;BME280;24370;51.986;4.666;2023-03-13T03:35:13;99783.03;;;16.82;95.92
38616;BME280;24370;51.986;4.666;2023-03-13T03:37:38;99790.59;;;16.19;100.00
38616;BME280;24370;51.986;4.666;2023-03-13T03:40:04;99789.72;;;16.54;100.00
38616;BME280;24370;51.986;4.666;2023-03-13T03:42:33;99787.00;;;16.90;98.66
38616;BME280;24370;51.986;4.666;2023-03-13T03:44:58;99770.38;;;17.70;94.70
38616;BME280;24370;51.986;4.666;2023-03-13T03:47:24;99769.34;;;17.40;94.78
38616;BME280;24370;51.986;4.666;2023-03-13T03:49:49;99766.50;;;16.78;98.85
38616;BME280;24370;51.986;4.666;2023-03-13T03:52:14;99764.56;;;17.15;95.73
38616;BME280;24370;51.986;4.666;2023-03-13T03:54:40;99764.16;;;17.55;95.76
38616;BME280;24370;51.986;4.666;2023-03-13T03:57:05;99761.97;;;17.77;90.89
38616;BME280;24370;51.986;4.666;2023-03-13T03:59:31;99755.34;;;17.22;90.47
38616;BME280;24370;51.986;4.666;2023-03-13T04:01:56;99750.94;;;17.23;92.95
38616;BME280;24370;51.986;4.666;2023-03-13T04:04:22;99759.94;;;17.67;89.38
38616;BME280;24370;51.986;4.666;2023-03-13T04:06:47;99754.31;;;17.89;87.75
38616;BME280;24370;51.986;4.666;2023-03-13T04:09:12;99757.69;;;17.28;95.37
38616;BME280;24370;51.986;4.666;2023-03-13T04:11:38;99747.16;;;16.95;100.00
38616;BME280;24370;51.986;4.666;2023-03-13T04:14:03;99737.31;;;17.46;94.56
38616;BME280;24370;51.986;4.666;2023-03-13T04:16:29;99745.56;;;17.08;95.09
38616;BME280;24370;51.986;4.666;2023-03-13T04:18:55;99742.16;;;17.38;93.52
38616;BME280;24370;51.986;4.666;2023-03-13T04:21:20;99738.56;;;17.71;91.89
38616;BME280;24370;51.986;4.666;2023-03-13T04:23:46;99733.72;;;18.10;88.03
38616;BME280;24370;51.986;4.666;2023-03-13T04:26:11;99728.09;;;16.90;96.58
38616;BME280;24370;51.986;4.666;2023-03-13T04:28:36;99731.59;;;17.38;95.39
38616;BME280;24370;51.986;4.666;2023-03-13T04:31:02;99739.94;;;16.99;97.63
38616;BME280;24370;51.986;4.666;2023-03-13T04:33:27;99730.69;;;17.39;97.19
38616;BME280;24370;51.986;4.666;2023-03-13T04:35:53;99739.91;;;17.78;89.11
38616;BME280;24370;51.986;4.666;2023-03-13T04:38:18;99720.41;;;17.65;91.69
38616;BME280;24370;51.986;4.666;2023-03-13T04:40:45;99726.16;;;17.41;91.43
38616;BME280;24370;51.986;4.666;2023-03-13T04:43:11;99733.16;;;18.05;86.11
38616;BME280;24370;51.986;4.666;2023-03-13T04:45:36;99715.34;;;17.30;93.53
38616;BME280;24370;51.986;4.666;2023-03-13T04:48:01;99735.94;;;17.07;95.58
38616;BME280;24370;51.986;4.666;2023-03-13T04:50:27;99722.75;;;17.86;86.46
38616;BME280;24370;51.986;4.666;2023-03-13T04:52:52;99721.72;;;17.88;86.57
38616;BME280;24370;51.986;4.666;2023-03-13T04:55:17;99709.09;;;18.09;82.54
38616;BME280;24370;51.986;4.666;2023-03-13T04:57:43;99697.53;;;17.96;83.76
38616;BME280;24370;51.986;4.666;2023-03-13T05:00:09;99698.75;;;18.78;78.96
38616;BME280;24370;51.986;4.666;2023-03-13T05:02:35;99701.63;;;17.23;85.18
38616;BME280;24370;51.986;4.666;2023-03-13T05:05:01;99695.72;;;17.18;87.70
38616;BME280;24370;51.986;4.666;2023-03-13T05:07:26;99695.00;;;17.62;83.97
38616;BME280;24370;51.986;4.666;2023-03-13T05:09:52;99690.22;;;17.23;86.94
38616;BME280;24370;51.986;4.666;2023-03-13T05:12:17;99696.25;;;17.25;86.16
38616;BME280;24370;51.986;4.666;2023-03-13T05:14:42;99686.94;;;17.50;83.95
38616;BME280;24370;51.986;4.666;2023-03-13T05:17:08;99683.97;;;17.40;85.10
38616;BME280;24370;51.986;4.666;2023-03-13T05:19:35;99650.16;;;18.79;76.16
38616;BME280;24370;51.986;4.666;2023-03-13T05:22:00;99670.47;;;17.91;77.37
38616;BME280;24370;51.986;4.666;2023-03-13T05:24:26;99663.75;;;17.85;79.61
38616;BME280;24370;51.986;4.666;2023-03-13T05:26:51;99657.50;;;17.72;80.41
38616;BME280;24370;51.986;4.666;2023-03-13T05:29:17;99655.66;;;17.42;81.18
38616;BME280;24370;51.986;4.666;2023-03-13T05:31:42;99661.63;;;17.45;78.34
38616;BME280;24370;51.986;4.666;2023-03-13T05:34:08;99656.78;;;18.29;75.58
38616;BME280;24370;51.986;4.666;2023-03-13T05:36:33;99645.72;;;18.80;68.77
38616;BME280;24370;51.986;4.666;2023-03-13T05:38:58;99644.50;;;18.28;72.78
38616;BME280;24370;51.986;4.666;2023-03-13T05:41:24;99637.88;;;18.06;72.98
38616;BME280;24370;51.986;4.666;2023-03-13T05:43:49;99637.22;;;18.75;69.82
38616;BME280;24370;51.986;4.666;2023-03-13T05:46:14;99646.31;;;17.36;74.99
38616;BME280;24370;51.986;4.666;2023-03-13T05:48:40;99637.28;;;17.71;74.27
38616;BME280;24370;51.986;4.666;2023-03-13T05:51:05;99639.78;;;17.74;73.11
38616;BME280;24370;51.986;4.666;2023-03-13T05:53:30;99619.38;;;17.45;74.26
38616;BME280;24370;51.986;4.666;2023-03-13T05:55:56;99647.31;;;17.50;75.56
38616;BME280;24370;51.986;4.666;2023-03-13T05:58:21;99620.78;;;17.97;70.77
38616;BME280;24370;51.986;4.666;2023-03-13T06:00:46;99622.03;;;18.21;70.97
38616;BME280;24370;51.986;4.666;2023-03-13T06:03:13;99637.31;;;18.01;73.53
38616;BME280;24370;51.986;4.666;2023-03-13T06:05:38;99644.56;;;17.67;72.69
38616;BME280;24370;51.986;4.666;2023-03-13T06:08:04;99636.31;;;17.88;72.25
38616;BME280;24370;51.986;4.666;2023-03-13T06:10:29;99647.22;;;17.81;71.90
38616;BME280;24370;51.986;4.666;2023-03-13T06:12:55;99637.78;;;17.77;73.71
38616;BME280;24370;51.986;4.666;2023-03-13T06:15:21;99644.19;;;17.73;72.52
38616;BME280;24370;51.986;4.666;2023-03-13T06:17:47;99650.94;;;17.17;76.52
38616;BME280;24370;51.986;4.666;2023-03-13T06:20:12;99639.69;;;17.90;74.01
38616;BME280;24370;51.986;4.666;2023-03-13T06:22:38;99639.28;;;17.81;73.32
38616;BME280;24370;51.986;4.666;2023-03-13T06:25:04;99664.97;;;17.79;74.19
38616;BME280;24370;51.986;4.666;2023-03-13T06:27:30;99651.22;;;17.58;76.34
38616;BME280;24370;51.986;4.666;2023-03-13T06:29:55;99661.75;;;17.74;75.07
38616;BME280;24370;51.986;4.666;2023-03-13T06:32:20;99662.13;;;17.68;79.86
38616;BME280;24370;51.986;4.666;2023-03-13T06:34:46;99672.38;;;17.42;81.17
38616;BME280;24370;51.986;4.666;2023-03-13T06:37:11;99680.13;;;17.45;83.89
38616;BME280;24370;51.986;4.666;2023-03-13T06:39:36;99655.94;;;17.84;78.12
38616;BME280;24370;51.986;4.666;2023-03-13T06:42:02;99664.41;;;16.96;85.22
38616;BME280;24370;51.986;4.666;2023-03-13T06:44:27;99669.25;;;17.82;83.55
38616;BME280;24370;51.986;4.666;2023-03-13T06:46:53;99676.00;;;18.02;80.54
38616;BME280;24370;51.986;4.666;2023-03-13T06:49:18;99669.28;;;17.66;83.78
38616;BME280;24370;51.986;4.666;2023-03-13T06:51:44;99655.72;;;17.26;90.38
38616;BME280;24370;51.986;4.666;2023-03-13T06:54:09;99666.28;;;16.94;90.66
38616;BME280;24370;51.986;4.666;2023-03-13T06:56:34;99660.16;;;16.76;90.49
38616;BME280;24370;51.986;4.666;2023-03-13T06:59:00;99649.22;;;17.16;93.09
38616;BME280;24370;51.986;4.666;2023-03-13T07:01:25;99648.03;;;16.73;92.56
38616;BME280;24370;51.986;4.666;2023-03-13T07:03:51;99656.88;;;16.72;95.01
38616;BME280;24370;51.986;4.666;2023-03-13T07:06:17;99650.66;;;16.40;96.84
38616;BME280;24370;51.986;4.666;2023-03-13T07:08:43;99652.25;;;17.56;91.46
38616;BME280;24370;51.986;4.666;2023-03-13T07:11:10;99643.72;;;17.04;93.64
38616;BME280;24370;51.986;4.666;2023-03-13T07:13:36;99660.16;;;17.09;92.39
38616;BME280;24370;51.986;4.666;2023-03-13T07:16:03;99641.28;;;16.84;94.25
38616;BME280;24370;51.986;4.666;2023-03-13T07:18:29;99650.03;;;16.68;97.06
38616;BME280;24370;51.986;4.666;2023-03-13T07:20:57;99657.09;;;17.01;94.52
38616;BME280;24370;51.986;4.666;2023-03-13T07:23:24;99652.13;;;16.95;97.00
38616;BME280;24370;51.986;4.666;2023-03-13T07:26:09;99639.53;;;17.16;94.12
38616;BME280;24370;51.986;4.666;2023-03-13T07:28:35;99649.13;;;17.33;93.87
38616;BME280;24370;51.986;4.666;2023-03-13T07:31:10;99664.06;;;17.64;89.90
38616;BME280;24370;51.986;4.666;2023-03-13T07:33:36;99657.38;;;16.79;92.15
38616;BME280;24370;51.986;4.666;2023-03-13T07:36:02;99654.50;;;17.16;92.35
38616;BME280;24370;51.986;4.666;2023-03-13T07:38:27;99659.75;;;17.94;84.87
38616;BME280;24370;51.986;4.666;2023-03-13T07:40:54;99670.63;;;17.27;87.58
38616;BME280;24370;51.986;4.666;2023-03-13T07:43:21;99668.72;;;17.45;86.33
38616;BME280;24370;51.986;4.666;2023-03-13T07:48:36;99658.16;;;17.13;90.34
38616;BME280;24370;51.986;4.666;2023-03-13T07:51:13;99647.69;;;17.43;89.42
38616;BME280;24370;51.986;4.666;2023-03-13T07:53:40;99642.69;;;18.28;82.97
38616;BME280;24370;51.986;4.666;2023-03-13T07:56:09;99648.59;;;17.89;83.13
38616;BME280;24370;51.986;4.666;2023-03-13T07:58:36;99649.53;;;17.41;83.75
38616;BME280;24370;51.986;4.666;2023-03-13T08:01:15;99645.91;;;16.96;90.90
38616;BME280;24370;51.986;4.666;2023-03-13T08:03:41;99638.47;;;17.51;88.50
38616;BME280;24370;51.986;4.666;2023-03-13T08:06:08;99657.66;;;17.22;93.40
38616;BME280;24370;51.986;4.666;2023-03-13T08:08:35;99662.16;;;17.36;92.15
38616;BME280;24370;51.986;4.666;2023-03-13T08:11:04;99642.09;;;17.64;87.30
38616;BME280;24370;51.986;4.666;2023-03-13T08:13:31;99641.94;;;17.81;89.07
38616;BME280;24370;51.986;4.666;2023-03-13T08:16:07;99635.31;;;19.06;80.20
38616;BME280;24370;51.986;4.666;2023-03-13T08:18:33;99629.63;;;16.88;89.91
38616;BME280;24370;51.986;4.666;2023-03-13T08:21:01;99635.47;;;17.10;89.93
38616;BME280;24370;51.986;4.666;2023-03-13T08:23:27;99628.63;;;18.28;86.29
38616;BME280;24370;51.986;4.666;2023-03-13T08:25:52;99623.13;;;18.02;82.95
38616;BME280;24370;51.986;4.666;2023-03-13T08:28:17;99631.16;;;17.70;86.27
38616;BME280;24370;51.986;4.666;2023-03-13T08:30:43;99633.63;;;17.73;81.95
38616;BME280;24370;51.986;4.666;2023-03-13T08:33:08;99642.03;;;18.10;81.42
38616;BME280;24370;51.986;4.666;2023-03-13T08:35:33;99632.25;;;17.52;88.24
38616;BME280;24370;51.986;4.666;2023-03-13T08:37:59;99619.38;;;17.45;84.27
38616;BME280;24370;51.986;4.666;2023-03-13T08:40:24;99647.81;;;17.56;84.84
38616;BME280;24370;51.986;4.666;2023-03-13T08:42:50;99613.72;;;18.12;80.41
38616;BME280;24370;51.986;4.666;2023-03-13T08:45:15;99620.13;;;18.23;77.66
38616;BME280;24370;51.986;4.666;2023-03-13T08:47:40;99607.66;;;17.96;79.92
38616;BME280;24370;51.986;4.666;2023-03-13T08:50:06;99593.50;;;18.40;76.50
38616;BME280;24370;51.986;4.666;2023-03-13T08:52:31;99612.34;;;17.60;82.49
38616;BME280;24370;51.986;4.666;2023-03-13T08:54:57;99582.84;;;18.27;77.23
38616;BME280;24370;51.986;4.666;2023-03-13T08:57:22;99584.22;;;18.62;72.66
38616;BME280;24370;51.986;4.666;2023-03-13T08:59:47;99589.28;;;17.78;75.11
38616;BME280;24370;51.986;4.666;2023-03-13T09:02:14;99581.03;;;18.13;71.54
38616;BME280;24370;51.986;4.666;2023-03-13T09:04:44;99568.09;;;19.74;65.40
38616;BME280;24370;51.986;4.666;2023-03-13T09:07:10;99572.13;;;20.44;59.69
38616;BME280;24370;51.986;4.666;2023-03-13T09:09:35;99552.81;;;20.16;61.75
38616;BME280;24370;51.986;4.666;2023-03-13T09:12:00;99566.09;;;19.25;63.10
38616;BME280;24370;51.986;4.666;2023-03-13T09:14:26;99553.44;;;20.33;59.80
38616;BME280;24370;51.986;4.666;2023-03-13T09:16:51;99548.00;;;20.84;56.42
38616;BME280;24370;51.986;4.666;2023-03-13T09:19:16;99556.88;;;20.09;57.62
38616;BME280;24370;51.986;4.666;2023-03-13T09:21:42;99551.56;;;19.83;57.49
38616;BME280;24370;51.986;4.666;2023-03-13T09:24:07;99548.84;;;20.85;54.65
38616;BME280;24370;51.986;4.666;2023-03-13T09:26:33;99539.56;;;20.66;55.27
38616;BME280;24370;51.986;4.666;2023-03-13T09:28:58;99544.00;;;20.66;54.29
38616;BME280;24370;51.986;4.666;2023-03-13T09:31:31;99542.59;;;21.10;53.54
38616;BME280;24370;51.986;4.666;2023-03-13T09:33:57;99542.56;;;20.49;54.78
38616;BME280;24370;51.986;4.666;2023-03-13T09:36:23;99539.41;;;19.28;57.64
38616;BME280;24370;51.986;4.666;2023-03-13T09:38:53;99543.94;;;19.92;57.29
38616;BME280;24370;51.986;4.666;2023-03-13T09:41:31;99522.34;;;21.32;52.95
38616;BME280;24370;51.986;4.666;2023-03-13T09:44:27;99506.69;;;21.40;50.86
38616;BME280;24370;51.986;4.666;2023-03-13T09:47:29;99505.56;;;21.56;50.51
38616;BME280;24370;51.986;4.666;2023-03-13T09:50:09;99493.97;;;22.13;49.38
38616;BME280;24370;51.986;4.666;2023-03-13T09:52:39;99488.06;;;20.93;50.87
38616;BME280;24370;51.986;4.666;2023-03-13T09:55:44;99491.06;;;20.89;51.30
38616;BME280;24370;51.986;4.666;2023-03-13T09:58:14;99486.25;;;21.88;49.03
38616;BME280;24370;51.986;4.666;2023-03-13T10:01:08;99503.00;;;21.54;49.36
38616;BME280;24370;51.986;4.666;2023-03-13T10:03:41;99496.81;;;20.82;51.42
38616;BME280;24370;51.986;4.666;2023-03-13T10:06:18;99488.69;;;20.97;52.76
38616;BME280;24370;51.986;4.666;2023-03-13T10:08:44;99507.72;;;20.29;54.31
38616;BME280;24370;51.986;4.666;2023-03-13T10:13:54;99479.47;;;21.95;49.95
38616;BME280;24370;51.986;4.666;2023-03-13T10:16:37;99484.28;;;21.56;50.54
38616;BME280;24370;51.986;4.666;2023-03-13T10:19:26;99483.59;;;21.88;49.54
38616;BME280;24370;51.986;4.666;2023-03-13T10:21:53;99479.34;;;22.19;48.76
38616;BME280;24370;51.986;4.666;2023-03-13T10:24:36;99490.13;;;20.53;50.71
38616;BME280;24370;51.986;4.666;2023-03-13T10:27:08;99490.03;;;21.02;49.99
38616;BME280;24370;51.986;4.666;2023-03-13T10:29:33;99516.19;;;21.56;48.21
38616;BME280;24370;51.986;4.666;2023-03-13T10:32:01;99495.75;;;20.85;48.93
38616;BME280;24370;51.986;4.666;2023-03-13T10:37:25;99498.53;;;20.83;47.65
38616;BME280;24370;51.986;4.666;2023-03-13T10:39:52;99481.63;;;22.46;44.26
38616;BME280;24370;51.986;4.666;2023-03-13T10:42:26;99482.50;;;23.33;42.63
38616;BME280;24370;51.986;4.666;2023-03-13T10:44:58;99470.94;;;22.58;42.70
38616;BME280;24370;51.986;4.666;2023-03-13T10:47:24;99481.41;;;22.70;42.72
38616;BME280;24370;51.986;4.666;2023-03-13T10:50:00;99460.50;;;22.66;42.53
38616;BME280;24370;51.986;4.666;2023-03-13T10:52:47;99434.97;;;21.74;43.61
38616;BME280;24370;51.986;4.666;2023-03-13T10:55:20;99455.34;;;22.85;41.78
38616;BME280;24370;51.986;4.666;2023-03-13T11:00:40;99444.88;;;22.61;42.33
38616;BME280;24370;51.986;4.666;2023-03-13T11:03:17;99435.63;;;23.30;41.09
38616;BME280;24370;51.986;4.666;2023-03-13T11:06:02;99435.28;;;22.26;41.64
38616;BME280;24370;51.986;4.666;2023-03-13T11:08:34;99447.28;;;22.97;41.30
38616;BME280;24370;51.986;4.666;2023-03-13T11:11:01;99452.28;;;21.68;42.38
38616;BME280;24370;51.986;4.666;2023-03-13T11:13:35;99438.53;;;21.28;43.01
38616;BME280;24370;51.986;4.666;2023-03-13T11:16:27;99470.28;;;21.88;41.90
38616;BME280;24370;51.986;4.666;2023-03-13T11:21:51;99439.56;;;22.17;41.48
38616;BME280;24370;51.986;4.666;2023-03-13T11:29:53;99488.38;;;20.77;42.57
38616;BME280;24370;51.986;4.666;2023-03-13T11:32:40;99470.50;;;21.73;41.27
38616;BME280;24370;51.986;4.666;2023-03-13T11:35:30;99487.91;;;20.83;42.95
38616;BME280;24370;51.986;4.666;2023-03-13T11:38:01;99474.03;;;22.74;39.97
38616;BME280;24370;51.986;4.666;2023-03-13T11:40:43;99493.50;;;21.27;40.53
38616;BME280;24370;51.986;4.666;2023-03-13T11:43:23;99468.63;;;22.53;39.99
38616;BME280;24370;51.986;4.666;2023-03-13T11:46:14;99465.66;;;22.35;39.27
38616;BME280;24370;51.986;4.666;2023-03-13T11:49:17;99468.19;;;22.25;40.05
38616;BME280;24370;51.986;4.666;2023-03-13T11:54:42;99453.31;;;21.43;40.20
38616;BME280;24370;51.986;4.666;2023-03-13T12:03:21;99445.59;;;22.08;40.03
38616;BME280;24370;51.986;4.666;2023-03-13T12:05:54;99430.75;;;22.82;39.01
38616;BME280;24370;51.986;4.666;2023-03-13T12:08:35;99416.63;;;23.45;37.39
38616;BME280;24370;51.986;4.666;2023-03-13T12:13:39;99422.13;;;22.25;38.56
38616;BME280;24370;51.986;4.666;2023-03-13T12:16:15;99428.81;;;22.84;37.30
38616;BME280;24370;51.986;4.666;2023-03-13T12:18:45;99430.34;;;22.65;37.93
38616;BME280;24370;51.986;4.666;2023-03-13T12:21:19;99425.25;;;23.58;37.12
38616;BME280;24370;51.986;4.666;2023-03-13T12:26:36;99431.63;;;22.82;37.47
38616;BME280;24370;51.986;4.666;2023-03-13T12:31:58;99436.53;;;21.88;38.96
38616;BME280;24370;51.986;4.666;2023-03-13T12:40:56;99435.34;;;21.58;39.18
38616;BME280;24370;51.986;4.666;2023-03-13T12:43:21;99425.28;;;21.39;39.52
38616;BME280;24370;51.986;4.666;2023-03-13T12:59:38;99406.53;;;20.82;40.51
38616;BME280;24370;51.986;4.666;2023-03-13T13:02:20;99420.81;;;20.81;40.97
38616;BME280;24370;51.986;4.666;2023-03-13T13:04:48;99411.44;;;20.03;41.09
38616;BME280;24370;51.986;4.666;2023-03-13T13:12:30;99397.75;;;21.51;39.59
38616;BME280;24370;51.986;4.666;2023-03-13T13:14:58;99393.78;;;20.99;40.55
38616;BME280;24370;51.986;4.666;2023-03-13T13:25:49;99395.19;;;20.56;39.67
38616;BME280;24370;51.986;4.666;2023-03-13T13:30:50;99402.53;;;20.28;39.37
38616;BME280;24370;51.986;4.666;2023-03-13T13:38:46;99393.84;;;21.22;38.53
38616;BME280;24370;51.986;4.666;2023-03-13T13:43:41;99395.59;;;20.98;38.88
38616;BME280;24370;51.986;4.666;2023-03-13T13:48:37;99368.84;;;20.17;40.28
38616;BME280;24370;51.986;4.666;2023-03-13T14:01:40;99356.22;;;19.71;40.53
38616;BME280;24370;51.986;4.666;2023-03-13T14:04:33;99323.31;;;19.99;39.76
38616;BME280;24370;51.986;4.666;2023-03-13T14:07:02;99339.47;;;19.83;40.12
38616;BME280;24370;51.986;4.666;2023-03-13T14:09:49;99345.53;;;19.86;40.25
38616;BME280;24370;51.986;4.666;2023-03-13T14:12:32;99328.19;;;19.93;39.93
38616;BME280;24370;51.986;4.666;2023-03-13T14:15:18;99324.25;;;20.23;39.55
38616;BME280;24370;51.986;4.666;2023-03-13T14:18:12;99335.44;;;19.91;40.42
38616;BME280;24370;51.986;4.666;2023-03-13T14:21:00;99322.31;;;20.84;39.05
38616;BME280;24370;51.986;4.666;2023-03-13T14:23:35;99325.22;;;21.04;38.76
38616;BME280;24370;51.986;4.666;2023-03-13T14:26:23;99310.66;;;20.27;40.01
38616;BME280;24370;51.986;4.666;2023-03-13T14:28:51;99333.63;;;20.15;40.47
38616;BME280;24370;51.986;4.666;2023-03-13T14:31:35;99327.75;;;20.83;39.52
38616;BME280;24370;51.986;4.666;2023-03-13T14:34:07;99326.41;;;20.17;40.15
38616;BME280;24370;51.986;4.666;2023-03-13T14:42:02;99317.41;;;20.67;39.54
38616;BME280;24370;51.986;4.666;2023-03-13T14:44:30;99308.97;;;20.02;40.50
38616;BME280;24370;51.986;4.666;2023-03-13T14:47:03;99309.50;;;20.78;39.54
38616;BME280;24370;51.986;4.666;2023-03-13T14:49:29;99315.16;;;20.38;39.64
38616;BME280;24370;51.986;4.666;2023-03-13T14:52:26;99306.88;;;20.90;39.08
38616;BME280;24370;51.986;4.666;2023-03-13T14:57:19;99290.47;;;21.18;38.51
38616;BME280;24370;51.986;4.666;2023-03-13T14:59:47;99301.34;;;20.22;39.72
38616;BME280;24370;51.986;4.666;2023-03-13T15:02:28;99284.53;;;19.86;39.96
38616;BME280;24370;51.986;4.666;2023-03-13T15:07:44;99301.16;;;20.36;39.18